JAF84E LFPG-GMFO
Flight info
| Callsign | JAF84E |
|---|---|
| Flight time | 2h 31m |
| Altitude | 35000 |
| Route | ERIXU DCT ERTOK DCT ETAMO DCT GUERE DCT AGN DCT ANETO N860 AMR/N0464F360 M372 ESAMI/N0463F370 UM372 IXIRI UW700 DIGEX |
| Aircraft | B738/M-SDE2E3FGHIRWXY/LB1 |
Departure
| Time | 2026-05-04 13:40 |
|---|---|
| Airport | Charles de Gaulle International Airport (LFPG) |
Arrival
| Time | 2026-05-04 16:12 |
|---|---|
| Airport | Oujda Angads Airport (GMFO) |
| Time | Latitude | Longitude | Altitude | Speed | Heading |
|---|---|---|---|---|---|
| 2026-05-04 13:04 | 49.01178 | 2.55508 | 354 ft | 0 kts | 175° |
| 2026-05-04 13:23 | 49.01187 | 2.55507 | 358 ft | 4 kts | 175° |
| 2026-05-04 13:23 | 49.01214 | 2.55503 | 356 ft | 4 kts | 175° |
| 2026-05-04 13:23 | 49.01241 | 2.55502 | 363 ft | 4 kts | 187° |
| 2026-05-04 13:24 | 49.01256 | 2.55507 | 359 ft | 4 kts | 221° |
| 2026-05-04 13:24 | 49.01262 | 2.55519 | 356 ft | 1 kts | 266° |
| 2026-05-04 13:28 | 49.01258 | 2.55430 | 354 ft | 11 kts | 266° |
| 2026-05-04 13:29 | 49.01251 | 2.55310 | 354 ft | 11 kts | 265° |
| 2026-05-04 13:29 | 49.01244 | 2.55163 | 357 ft | 17 kts | 266° |
| 2026-05-04 13:29 | 49.01234 | 2.54990 | 354 ft | 16 kts | 265° |
| 2026-05-04 13:29 | 49.01226 | 2.54823 | 362 ft | 15 kts | 265° |
| 2026-05-04 13:30 | 49.01217 | 2.54661 | 357 ft | 15 kts | 266° |
| 2026-05-04 13:30 | 49.01209 | 2.54501 | 357 ft | 15 kts | 265° |
| 2026-05-04 13:30 | 49.01201 | 2.54348 | 360 ft | 14 kts | 265° |
| 2026-05-04 13:30 | 49.01194 | 2.54232 | 354 ft | 10 kts | 265° |
| 2026-05-04 13:31 | 49.01188 | 2.54130 | 354 ft | 10 kts | 265° |
| 2026-05-04 13:31 | 49.01203 | 2.54038 | 360 ft | 8 kts | 324° |
| 2026-05-04 13:31 | 49.01235 | 2.54046 | 356 ft | 2 kts | 70° |
| 2026-05-04 13:31 | 49.01222 | 2.54068 | 357 ft | 5 kts | 144° |
| 2026-05-04 13:32 | 49.01189 | 2.54154 | 354 ft | 13 kts | 86° |
| 2026-05-04 13:32 | 49.01196 | 2.54291 | 359 ft | 13 kts | 85° |
| 2026-05-04 13:32 | 49.01203 | 2.54424 | 354 ft | 12 kts | 84° |
| 2026-05-04 13:32 | 49.01210 | 2.54554 | 363 ft | 12 kts | 85° |
| 2026-05-04 13:33 | 49.01217 | 2.54680 | 357 ft | 12 kts | 85° |
| 2026-05-04 13:33 | 49.01223 | 2.54804 | 357 ft | 12 kts | 85° |
| 2026-05-04 13:33 | 49.01229 | 2.54948 | 354 ft | 15 kts | 100° |
| 2026-05-04 13:33 | 49.01139 | 2.55028 | 356 ft | 17 kts | 164° |
| 2026-05-04 13:34 | 49.01023 | 2.55078 | 361 ft | 17 kts | 165° |
| 2026-05-04 13:34 | 49.00910 | 2.55127 | 357 ft | 17 kts | 163° |
| 2026-05-04 13:34 | 49.00799 | 2.55176 | 358 ft | 16 kts | 164° |
| 2026-05-04 13:34 | 49.00691 | 2.55223 | 357 ft | 16 kts | 165° |
| 2026-05-04 13:35 | 49.00587 | 2.55266 | 353 ft | 15 kts | 164° |
| 2026-05-04 13:35 | 49.00393 | 2.55352 | 355 ft | 14 kts | 163° |
| 2026-05-04 13:35 | 49.00290 | 2.55398 | 356 ft | 20 kts | 164° |
| 2026-05-04 13:36 | 49.00162 | 2.55453 | 355 ft | 19 kts | 164° |
| 2026-05-04 13:36 | 49.00049 | 2.55502 | 354 ft | 12 kts | 165° |
| 2026-05-04 13:36 | 48.99975 | 2.55532 | 356 ft | 11 kts | 163° |
| 2026-05-04 13:36 | 48.99907 | 2.55524 | 357 ft | 10 kts | 226° |
| 2026-05-04 13:37 | 48.99893 | 2.55417 | 353 ft | 10 kts | 266° |
| 2026-05-04 13:37 | 48.99888 | 2.55305 | 353 ft | 11 kts | 265° |
| 2026-05-04 13:37 | 48.99883 | 2.55194 | 353 ft | 10 kts | 267° |
| 2026-05-04 13:37 | 48.99876 | 2.55086 | 357 ft | 10 kts | 264° |
| 2026-05-04 13:38 | 48.99830 | 2.55042 | 358 ft | 10 kts | 165° |
| 2026-05-04 13:38 | 48.99766 | 2.55069 | 358 ft | 10 kts | 164° |
| 2026-05-04 13:38 | 48.99702 | 2.55096 | 360 ft | 9 kts | 163° |
| 2026-05-04 13:38 | 48.99653 | 2.55153 | 353 ft | 9 kts | 120° |
| 2026-05-04 13:39 | 48.99626 | 2.55239 | 357 ft | 9 kts | 115° |
| 2026-05-04 13:39 | 48.99596 | 2.55320 | 355 ft | 9 kts | 131° |
| 2026-05-04 13:39 | 48.99577 | 2.55404 | 351 ft | 9 kts | 91° |
| 2026-05-04 13:39 | 48.99585 | 2.55568 | 356 ft | 36 kts | 85° |
| 2026-05-04 13:40 | 48.99628 | 2.56350 | 359 ft | 110 kts | 85° |
| 2026-05-04 13:40 | 48.99710 | 2.57832 | 408 ft | 165 kts | 84° |
| 2026-05-04 13:40 | 48.99805 | 2.59673 | 949 ft | 183 kts | 85° |
| 2026-05-04 13:40 | 48.99910 | 2.61614 | 1875 ft | 184 kts | 86° |
| 2026-05-04 13:41 | 49.00004 | 2.63585 | 2568 ft | 198 kts | 85° |
| 2026-05-04 13:41 | 49.00124 | 2.65818 | 2808 ft | 224 kts | 85° |
| 2026-05-04 13:41 | 49.00256 | 2.68267 | 3238 ft | 237 kts | 85° |
| 2026-05-04 13:42 | 49.00523 | 2.73340 | 4650 ft | 242 kts | 85° |
| 2026-05-04 13:42 | 49.00657 | 2.75922 | 5258 ft | 252 kts | 85° |
| 2026-05-04 13:42 | 49.00715 | 2.78638 | 5805 ft | 266 kts | 95° |
| 2026-05-04 13:42 | 49.00451 | 2.81453 | 6604 ft | 270 kts | 99° |
| 2026-05-04 13:43 | 49.00112 | 2.84270 | 7436 ft | 272 kts | 100° |
| 2026-05-04 13:43 | 48.99780 | 2.87129 | 8222 ft | 276 kts | 99° |
| 2026-05-04 13:43 | 48.99461 | 2.90039 | 9017 ft | 280 kts | 99° |
| 2026-05-04 13:43 | 48.99147 | 2.92981 | 9816 ft | 284 kts | 99° |
| 2026-05-04 13:44 | 48.98824 | 2.95990 | 10397 ft | 295 kts | 102° |
| 2026-05-04 13:44 | 48.97978 | 2.98941 | 10582 ft | 318 kts | 129° |
| 2026-05-04 13:44 | 48.96280 | 3.01067 | 11129 ft | 327 kts | 153° |
| 2026-05-04 13:44 | 48.94085 | 3.01985 | 11880 ft | 331 kts | 176° |
| 2026-05-04 13:45 | 48.91806 | 3.01509 | 12646 ft | 335 kts | 199° |
| 2026-05-04 13:45 | 48.89804 | 2.99694 | 13373 ft | 340 kts | 223° |
| 2026-05-04 13:45 | 48.88409 | 2.96785 | 14059 ft | 346 kts | 244° |
| 2026-05-04 13:45 | 48.87676 | 2.93302 | 14781 ft | 348 kts | 257° |
| 2026-05-04 13:46 | 48.87245 | 2.89666 | 15455 ft | 352 kts | 260° |
| 2026-05-04 13:46 | 48.86873 | 2.85975 | 16111 ft | 355 kts | 260° |
| 2026-05-04 13:46 | 48.86477 | 2.82266 | 16824 ft | 357 kts | 259° |
| 2026-05-04 13:46 | 48.86042 | 2.78532 | 17508 ft | 360 kts | 258° |
| 2026-05-04 13:47 | 48.85584 | 2.74845 | 18151 ft | 363 kts | 258° |
| 2026-05-04 13:47 | 48.85096 | 2.71062 | 18733 ft | 366 kts | 257° |
| 2026-05-04 13:47 | 48.84599 | 2.67266 | 19330 ft | 367 kts | 257° |
| 2026-05-04 13:47 | 48.84069 | 2.63471 | 19921 ft | 369 kts | 252° |
| 2026-05-04 13:48 | 48.82969 | 2.59980 | 20484 ft | 368 kts | 234° |
| 2026-05-04 13:48 | 48.81484 | 2.56815 | 21113 ft | 368 kts | 232° |
| 2026-05-04 13:48 | 48.79966 | 2.53673 | 21677 ft | 370 kts | 232° |
| 2026-05-04 13:48 | 48.78444 | 2.50509 | 22238 ft | 373 kts | 233° |
| 2026-05-04 13:49 | 48.76927 | 2.47310 | 22798 ft | 375 kts | 233° |
| 2026-05-04 13:49 | 48.75409 | 2.44083 | 23357 ft | 377 kts | 233° |
| 2026-05-04 13:49 | 48.73900 | 2.40882 | 23842 ft | 378 kts | 231° |
| 2026-05-04 13:49 | 48.72066 | 2.38049 | 24250 ft | 378 kts | 214° |
| 2026-05-04 13:50 | 48.69839 | 2.35929 | 24743 ft | 379 kts | 210° |
| 2026-05-04 13:50 | 48.67556 | 2.33922 | 25205 ft | 380 kts | 209° |
| 2026-05-04 13:50 | 48.65260 | 2.31919 | 25620 ft | 383 kts | 209° |
| 2026-05-04 13:50 | 48.62950 | 2.29886 | 26057 ft | 384 kts | 210° |
| 2026-05-04 13:51 | 48.60645 | 2.27835 | 26483 ft | 386 kts | 210° |
| 2026-05-04 13:51 | 48.58362 | 2.25790 | 26889 ft | 388 kts | 210° |
| 2026-05-04 13:51 | 48.56034 | 2.23701 | 27288 ft | 390 kts | 210° |
| 2026-05-04 13:51 | 48.53698 | 2.21607 | 27669 ft | 392 kts | 210° |
| 2026-05-04 13:52 | 48.48535 | 2.19238 | 28405 ft | 395 kts | 181° |
| 2026-05-04 13:52 | 48.45782 | 2.19397 | 28821 ft | 396 kts | 178° |
| 2026-05-04 13:52 | 48.43020 | 2.19683 | 29181 ft | 399 kts | 177° |
| 2026-05-04 13:53 | 48.40248 | 2.19978 | 29506 ft | 401 kts | 177° |
| 2026-05-04 13:53 | 48.37494 | 2.20246 | 29850 ft | 403 kts | 178° |
| 2026-05-04 13:53 | 48.34694 | 2.20491 | 30156 ft | 404 kts | 178° |
| 2026-05-04 13:54 | 48.29066 | 2.20955 | 30745 ft | 406 kts | 177° |
| 2026-05-04 13:54 | 48.26249 | 2.21447 | 31021 ft | 408 kts | 173° |
| 2026-05-04 13:54 | 48.20626 | 2.22916 | 31551 ft | 411 kts | 172° |
| 2026-05-04 13:55 | 48.17842 | 2.23654 | 31802 ft | 413 kts | 172° |
| 2026-05-04 13:55 | 48.12161 | 2.25070 | 32291 ft | 415 kts | 173° |
| 2026-05-04 13:55 | 48.09303 | 2.25760 | 32529 ft | 417 kts | 173° |
| 2026-05-04 13:56 | 48.06422 | 2.26315 | 32700 ft | 418 kts | 177° |
| 2026-05-04 13:56 | 48.03507 | 2.26567 | 32809 ft | 422 kts | 179° |
| 2026-05-04 13:56 | 47.97614 | 2.26796 | 33212 ft | 424 kts | 180° |
| 2026-05-04 13:57 | 47.94707 | 2.26913 | 33549 ft | 423 kts | 180° |
| 2026-05-04 13:57 | 47.91772 | 2.27056 | 33881 ft | 421 kts | 179° |
| 2026-05-04 13:58 | 47.82958 | 2.27578 | 34388 ft | 425 kts | 179° |
| 2026-05-04 13:58 | 47.77048 | 2.27950 | 34763 ft | 425 kts | 179° |
| 2026-05-04 13:58 | 47.74091 | 2.28135 | 34924 ft | 426 kts | 179° |
| 2026-05-04 13:59 | 47.68178 | 2.28501 | 34949 ft | 429 kts | 179° |
| 2026-05-04 14:00 | 47.59286 | 2.29052 | 34945 ft | 424 kts | 180° |
| 2026-05-04 14:00 | 47.50464 | 2.29610 | 34936 ft | 422 kts | 180° |
| 2026-05-04 14:01 | 47.44608 | 2.29985 | 34939 ft | 421 kts | 180° |
| 2026-05-04 14:02 | 47.35871 | 2.30541 | 34936 ft | 421 kts | 180° |
| 2026-05-04 14:02 | 47.30016 | 2.30912 | 34945 ft | 422 kts | 180° |
| 2026-05-04 14:03 | 47.24151 | 2.31282 | 34927 ft | 422 kts | 180° |
| 2026-05-04 14:03 | 47.18318 | 2.31650 | 34942 ft | 422 kts | 180° |
| 2026-05-04 14:04 | 47.09508 | 2.32205 | 34940 ft | 423 kts | 180° |
| 2026-05-04 14:04 | 47.03636 | 2.32580 | 34940 ft | 422 kts | 180° |
| 2026-05-04 14:05 | 46.94877 | 2.33121 | 34939 ft | 422 kts | 180° |
| 2026-05-04 14:06 | 46.89021 | 2.33487 | 34934 ft | 421 kts | 180° |
| 2026-05-04 14:06 | 46.83180 | 2.33375 | 34937 ft | 418 kts | 189° |
| 2026-05-04 14:07 | 46.77535 | 2.31386 | 34937 ft | 417 kts | 196° |
| 2026-05-04 14:07 | 46.71977 | 2.29178 | 34929 ft | 417 kts | 196° |
| 2026-05-04 14:08 | 46.66373 | 2.26992 | 34925 ft | 417 kts | 196° |
| 2026-05-04 14:08 | 46.60762 | 2.24829 | 34932 ft | 417 kts | 196° |
| 2026-05-04 14:09 | 46.52345 | 2.21600 | 34926 ft | 417 kts | 196° |
| 2026-05-04 14:10 | 46.43959 | 2.18392 | 34923 ft | 418 kts | 196° |
| 2026-05-04 14:10 | 46.38344 | 2.16249 | 34929 ft | 417 kts | 196° |
| 2026-05-04 14:11 | 46.32722 | 2.14108 | 34926 ft | 418 kts | 196° |
| 2026-05-04 14:11 | 46.24331 | 2.10920 | 34925 ft | 418 kts | 196° |
| 2026-05-04 14:12 | 46.18720 | 2.08758 | 34923 ft | 417 kts | 199° |
| 2026-05-04 14:13 | 46.10601 | 2.04336 | 34926 ft | 416 kts | 202° |
| 2026-05-04 14:13 | 46.05236 | 2.01353 | 34923 ft | 416 kts | 202° |
| 2026-05-04 14:14 | 45.99839 | 1.98380 | 34931 ft | 415 kts | 202° |
| 2026-05-04 14:14 | 45.91741 | 1.93948 | 34929 ft | 415 kts | 201° |
| 2026-05-04 14:15 | 45.80999 | 1.88098 | 34932 ft | 414 kts | 201° |
| 2026-05-04 14:16 | 45.72923 | 1.83715 | 34932 ft | 414 kts | 201° |
| 2026-05-04 14:17 | 45.64887 | 1.79367 | 34928 ft | 413 kts | 201° |
| 2026-05-04 14:18 | 45.56816 | 1.75013 | 34925 ft | 413 kts | 201° |
| 2026-05-04 14:19 | 45.46050 | 1.69227 | 34926 ft | 413 kts | 201° |
| 2026-05-04 14:19 | 45.40700 | 1.66360 | 34925 ft | 414 kts | 201° |
| 2026-05-04 14:20 | 45.35310 | 1.63478 | 34922 ft | 414 kts | 201° |
| 2026-05-04 14:20 | 45.29906 | 1.60594 | 34921 ft | 415 kts | 201° |
| 2026-05-04 14:21 | 45.21795 | 1.56277 | 34916 ft | 416 kts | 201° |
| 2026-05-04 14:21 | 45.16411 | 1.53418 | 34914 ft | 416 kts | 201° |
| 2026-05-04 14:22 | 45.10992 | 1.50547 | 34908 ft | 416 kts | 201° |
| 2026-05-04 14:22 | 45.05576 | 1.47683 | 34914 ft | 415 kts | 201° |
| 2026-05-04 14:23 | 44.97488 | 1.43417 | 34921 ft | 416 kts | 201° |
| 2026-05-04 14:24 | 44.92069 | 1.40566 | 34916 ft | 416 kts | 201° |
| 2026-05-04 14:24 | 44.86642 | 1.37716 | 34915 ft | 416 kts | 201° |
| 2026-05-04 14:25 | 44.81220 | 1.34875 | 34912 ft | 415 kts | 201° |
| 2026-05-04 14:25 | 44.73101 | 1.30632 | 34904 ft | 414 kts | 201° |
| 2026-05-04 14:26 | 44.67728 | 1.27830 | 34916 ft | 416 kts | 201° |
| 2026-05-04 14:26 | 44.62303 | 1.25007 | 34917 ft | 415 kts | 201° |
| 2026-05-04 14:27 | 44.56884 | 1.22193 | 34903 ft | 415 kts | 201° |
| 2026-05-04 14:27 | 44.51514 | 1.19409 | 34917 ft | 414 kts | 201° |
| 2026-05-04 14:28 | 44.46107 | 1.16613 | 34912 ft | 414 kts | 201° |
| 2026-05-04 14:28 | 44.40705 | 1.13824 | 34911 ft | 413 kts | 201° |
| 2026-05-04 14:29 | 44.29954 | 1.08290 | 34914 ft | 413 kts | 201° |
| 2026-05-04 14:30 | 44.24565 | 1.05524 | 34915 ft | 412 kts | 201° |
| 2026-05-04 14:31 | 44.16489 | 1.01389 | 34923 ft | 412 kts | 201° |
| 2026-05-04 14:32 | 44.05770 | 0.95919 | 34923 ft | 411 kts | 201° |
| 2026-05-04 14:32 | 44.00401 | 0.93187 | 34929 ft | 410 kts | 201° |
| 2026-05-04 14:33 | 43.95043 | 0.90465 | 34932 ft | 410 kts | 201° |
| 2026-05-04 14:33 | 43.89702 | 0.87766 | 34933 ft | 415 kts | 199° |
| 2026-05-04 14:34 | 43.84051 | 0.85947 | 34905 ft | 416 kts | 193° |
| 2026-05-04 14:34 | 43.78386 | 0.84475 | 34910 ft | 412 kts | 193° |
| 2026-05-04 14:35 | 43.72769 | 0.82998 | 34910 ft | 410 kts | 193° |
| 2026-05-04 14:35 | 43.67231 | 0.81525 | 34917 ft | 407 kts | 193° |
| 2026-05-04 14:36 | 43.61682 | 0.80045 | 34925 ft | 405 kts | 193° |
| 2026-05-04 14:36 | 43.56145 | 0.78570 | 34929 ft | 405 kts | 193° |
| 2026-05-04 14:37 | 43.50605 | 0.77097 | 34931 ft | 407 kts | 193° |
| 2026-05-04 14:37 | 43.45078 | 0.75631 | 34930 ft | 407 kts | 193° |
| 2026-05-04 14:38 | 43.39507 | 0.74156 | 34933 ft | 409 kts | 193° |
| 2026-05-04 14:38 | 43.33914 | 0.72678 | 34927 ft | 409 kts | 193° |
| 2026-05-04 14:39 | 43.28315 | 0.71202 | 34928 ft | 410 kts | 193° |
| 2026-05-04 14:39 | 43.22715 | 0.69727 | 34930 ft | 410 kts | 193° |
| 2026-05-04 14:40 | 43.14348 | 0.67530 | 34928 ft | 410 kts | 193° |
| 2026-05-04 14:40 | 43.08747 | 0.66062 | 34929 ft | 410 kts | 193° |
| 2026-05-04 14:41 | 43.03139 | 0.64596 | 34928 ft | 410 kts | 193° |
| 2026-05-04 14:42 | 42.91979 | 0.61685 | 34933 ft | 409 kts | 194° |
| 2026-05-04 14:42 | 42.86398 | 0.60233 | 34935 ft | 408 kts | 194° |
| 2026-05-04 14:43 | 42.80825 | 0.58786 | 34935 ft | 407 kts | 194° |
| 2026-05-04 14:43 | 42.75297 | 0.57353 | 34939 ft | 408 kts | 194° |
| 2026-05-04 14:44 | 42.69716 | 0.55908 | 34914 ft | 409 kts | 194° |
| 2026-05-04 14:44 | 42.64116 | 0.54469 | 34931 ft | 410 kts | 194° |
| 2026-05-04 14:45 | 42.58503 | 0.53034 | 34918 ft | 411 kts | 194° |
| 2026-05-04 14:45 | 42.52922 | 0.51608 | 34919 ft | 411 kts | 194° |
| 2026-05-04 14:46 | 42.47300 | 0.50173 | 34910 ft | 411 kts | 194° |
| 2026-05-04 14:46 | 42.41688 | 0.48744 | 34902 ft | 410 kts | 194° |
| 2026-05-04 14:47 | 42.36076 | 0.47316 | 34909 ft | 410 kts | 193° |
| 2026-05-04 14:47 | 42.30504 | 0.45893 | 34914 ft | 410 kts | 194° |
| 2026-05-04 14:48 | 42.24891 | 0.44459 | 34905 ft | 410 kts | 194° |
| 2026-05-04 14:48 | 42.19282 | 0.43029 | 34895 ft | 410 kts | 194° |
| 2026-05-04 14:49 | 42.13716 | 0.41612 | 34903 ft | 410 kts | 194° |
| 2026-05-04 14:49 | 42.08111 | 0.40189 | 34886 ft | 409 kts | 194° |
| 2026-05-04 14:50 | 42.02521 | 0.38771 | 34898 ft | 409 kts | 194° |
| 2026-05-04 14:50 | 41.96924 | 0.37354 | 34901 ft | 409 kts | 194° |
| 2026-05-04 14:51 | 41.91323 | 0.35945 | 34896 ft | 409 kts | 194° |
| 2026-05-04 14:51 | 41.85761 | 0.34548 | 34910 ft | 409 kts | 194° |
| 2026-05-04 14:52 | 41.80157 | 0.33142 | 34904 ft | 410 kts | 195° |
| 2026-05-04 14:52 | 41.74549 | 0.31738 | 34903 ft | 410 kts | 195° |
| 2026-05-04 14:53 | 41.68937 | 0.30344 | 34904 ft | 410 kts | 195° |
| 2026-05-04 14:53 | 41.63358 | 0.28964 | 34894 ft | 411 kts | 195° |
| 2026-05-04 14:54 | 41.57736 | 0.27574 | 34903 ft | 410 kts | 195° |
| 2026-05-04 14:54 | 41.52123 | 0.26188 | 34895 ft | 410 kts | 195° |
| 2026-05-04 14:55 | 41.46512 | 0.24805 | 34887 ft | 410 kts | 195° |
| 2026-05-04 14:55 | 41.40939 | 0.23433 | 34886 ft | 411 kts | 195° |
| 2026-05-04 14:56 | 41.35317 | 0.22052 | 34875 ft | 411 kts | 195° |
| 2026-05-04 14:56 | 41.29708 | 0.20642 | 34883 ft | 410 kts | 195° |
| 2026-05-04 14:57 | 41.24095 | 0.19226 | 34879 ft | 411 kts | 195° |
| 2026-05-04 14:57 | 41.18517 | 0.17857 | 34878 ft | 411 kts | 195° |
| 2026-05-04 14:58 | 41.12899 | 0.16452 | 34878 ft | 409 kts | 198° |
| 2026-05-04 14:58 | 41.07469 | 0.14332 | 34878 ft | 407 kts | 201° |
| 2026-05-04 14:59 | 41.02076 | 0.12140 | 34880 ft | 408 kts | 201° |
| 2026-05-04 15:00 | 40.93921 | 0.08876 | 34880 ft | 409 kts | 201° |
| 2026-05-04 15:00 | 40.88476 | 0.06709 | 34885 ft | 409 kts | 201° |
| 2026-05-04 15:01 | 40.80332 | 0.03442 | 34878 ft | 410 kts | 201° |
| 2026-05-04 15:01 | 40.74874 | 0.01243 | 34882 ft | 410 kts | 201° |
| 2026-05-04 15:02 | 40.69414 | -0.00950 | 34887 ft | 410 kts | 201° |
| 2026-05-04 15:02 | 40.63986 | -0.03125 | 34885 ft | 411 kts | 201° |
| 2026-05-04 15:03 | 40.58519 | -0.05313 | 34902 ft | 411 kts | 201° |
| 2026-05-04 15:03 | 40.53044 | -0.07493 | 34917 ft | 411 kts | 201° |
| 2026-05-04 15:04 | 40.47563 | -0.09657 | 34928 ft | 412 kts | 201° |
| 2026-05-04 15:04 | 40.42120 | -0.11802 | 34942 ft | 411 kts | 201° |
| 2026-05-04 15:05 | 40.36630 | -0.13964 | 34949 ft | 412 kts | 201° |
| 2026-05-04 15:05 | 40.31144 | -0.16122 | 34950 ft | 411 kts | 201° |
| 2026-05-04 15:06 | 40.25664 | -0.18274 | 34953 ft | 411 kts | 201° |
| 2026-05-04 15:07 | 40.17484 | -0.21505 | 34945 ft | 411 kts | 202° |
| 2026-05-04 15:07 | 40.12009 | -0.23669 | 34933 ft | 411 kts | 202° |
| 2026-05-04 15:08 | 40.06521 | -0.25833 | 34929 ft | 412 kts | 202° |
| 2026-05-04 15:08 | 40.01027 | -0.27995 | 34908 ft | 412 kts | 202° |
| 2026-05-04 15:09 | 39.95571 | -0.30113 | 34894 ft | 412 kts | 201° |
| 2026-05-04 15:09 | 39.90069 | -0.32226 | 34886 ft | 411 kts | 202° |
| 2026-05-04 15:10 | 39.81858 | -0.35413 | 34901 ft | 411 kts | 202° |
| 2026-05-04 15:11 | 39.73667 | -0.38602 | 34905 ft | 412 kts | 202° |
| 2026-05-04 15:11 | 39.68173 | -0.40733 | 34916 ft | 412 kts | 202° |
| 2026-05-04 15:12 | 39.62668 | -0.42866 | 34907 ft | 413 kts | 202° |
| 2026-05-04 15:12 | 39.57195 | -0.44983 | 34903 ft | 413 kts | 202° |
| 2026-05-04 15:13 | 39.51684 | -0.47110 | 34911 ft | 413 kts | 202° |
| 2026-05-04 15:13 | 39.46372 | -0.49756 | 34907 ft | 405 kts | 213° |
| 2026-05-04 15:14 | 39.41428 | -0.53259 | 34900 ft | 405 kts | 213° |
| 2026-05-04 15:14 | 39.36501 | -0.56714 | 34909 ft | 405 kts | 212° |
| 2026-05-04 15:15 | 39.31532 | -0.60172 | 34906 ft | 406 kts | 212° |
| 2026-05-04 15:15 | 39.26550 | -0.63626 | 34910 ft | 407 kts | 212° |
| 2026-05-04 15:16 | 39.19097 | -0.68783 | 34916 ft | 408 kts | 212° |
| 2026-05-04 15:17 | 39.11597 | -0.73962 | 34918 ft | 408 kts | 213° |
| 2026-05-04 15:17 | 39.04092 | -0.79130 | 34909 ft | 408 kts | 213° |
| 2026-05-04 15:18 | 38.99115 | -0.82555 | 34911 ft | 409 kts | 213° |
| 2026-05-04 15:19 | 38.91592 | -0.87723 | 34908 ft | 409 kts | 213° |
| 2026-05-04 15:19 | 38.84073 | -0.92876 | 34925 ft | 408 kts | 213° |
| 2026-05-04 15:20 | 38.79113 | -0.96270 | 34926 ft | 408 kts | 213° |
| 2026-05-04 15:20 | 38.74101 | -0.99692 | 34931 ft | 407 kts | 213° |
| 2026-05-04 15:21 | 38.69106 | -1.03096 | 34929 ft | 406 kts | 213° |
| 2026-05-04 15:22 | 38.61666 | -1.08156 | 34936 ft | 405 kts | 213° |
| 2026-05-04 15:22 | 38.54200 | -1.13225 | 34935 ft | 404 kts | 213° |
| 2026-05-04 15:23 | 38.49231 | -1.16592 | 34929 ft | 404 kts | 213° |
| 2026-05-04 15:23 | 38.44271 | -1.19947 | 34932 ft | 403 kts | 213° |
| 2026-05-04 15:24 | 38.34385 | -1.26621 | 34917 ft | 403 kts | 213° |
| 2026-05-04 15:25 | 38.29428 | -1.29959 | 34908 ft | 403 kts | 213° |
| 2026-05-04 15:26 | 38.22036 | -1.34927 | 34895 ft | 402 kts | 213° |
| 2026-05-04 15:26 | 38.14622 | -1.39899 | 34871 ft | 402 kts | 214° |
| 2026-05-04 15:27 | 38.07214 | -1.44855 | 34885 ft | 401 kts | 213° |
| 2026-05-04 15:28 | 37.99839 | -1.49778 | 34896 ft | 401 kts | 214° |
| 2026-05-04 15:29 | 37.92424 | -1.54718 | 34893 ft | 401 kts | 214° |
| 2026-05-04 15:30 | 37.75094 | -1.65988 | 34889 ft | 401 kts | 213° |
| 2026-05-04 15:31 | 37.67649 | -1.70802 | 34876 ft | 401 kts | 213° |
| 2026-05-04 15:32 | 37.55294 | -1.78768 | 34878 ft | 400 kts | 213° |
| 2026-05-04 15:34 | 37.42929 | -1.86713 | 34869 ft | 401 kts | 213° |
| 2026-05-04 15:34 | 37.35476 | -1.91486 | 34886 ft | 401 kts | 213° |
| 2026-05-04 15:35 | 37.28007 | -1.96261 | 34877 ft | 402 kts | 213° |
| 2026-05-04 15:36 | 37.20597 | -2.01064 | 34875 ft | 401 kts | 214° |
| 2026-05-04 15:36 | 37.15680 | -2.04369 | 34881 ft | 401 kts | 214° |
| 2026-05-04 15:37 | 37.10759 | -2.07668 | 34895 ft | 402 kts | 214° |
| 2026-05-04 15:37 | 37.05821 | -2.10960 | 34913 ft | 402 kts | 214° |
| 2026-05-04 15:38 | 37.00901 | -2.14232 | 34915 ft | 403 kts | 214° |
| 2026-05-04 15:38 | 36.95941 | -2.17525 | 34932 ft | 404 kts | 214° |
| 2026-05-04 15:39 | 36.90980 | -2.20815 | 34934 ft | 404 kts | 214° |
| 2026-05-04 15:40 | 36.83552 | -2.25699 | 34940 ft | 406 kts | 212° |
| 2026-05-04 15:40 | 36.78194 | -2.28167 | 34935 ft | 412 kts | 206° |
| 2026-05-04 15:41 | 36.72777 | -2.30466 | 34935 ft | 411 kts | 206° |
| 2026-05-04 15:41 | 36.67371 | -2.32778 | 34934 ft | 411 kts | 206° |
| 2026-05-04 15:42 | 36.61973 | -2.35098 | 34936 ft | 410 kts | 206° |
| 2026-05-04 15:42 | 36.56618 | -2.37401 | 34945 ft | 410 kts | 206° |
| 2026-05-04 15:43 | 36.51230 | -2.39720 | 34940 ft | 410 kts | 206° |
| 2026-05-04 15:43 | 36.45841 | -2.42028 | 34946 ft | 410 kts | 206° |
| 2026-05-04 15:44 | 36.40486 | -2.44319 | 34947 ft | 410 kts | 206° |
| 2026-05-04 15:44 | 36.35097 | -2.46623 | 34953 ft | 410 kts | 206° |
| 2026-05-04 15:45 | 36.29708 | -2.48924 | 34957 ft | 410 kts | 207° |
| 2026-05-04 15:45 | 36.24315 | -2.51222 | 34959 ft | 410 kts | 207° |
| 2026-05-04 15:46 | 36.18927 | -2.53516 | 34960 ft | 410 kts | 207° |
| 2026-05-04 15:46 | 36.13575 | -2.55791 | 34965 ft | 409 kts | 206° |
| 2026-05-04 15:47 | 36.08186 | -2.58078 | 34965 ft | 409 kts | 206° |
| 2026-05-04 15:47 | 36.02797 | -2.60362 | 34969 ft | 409 kts | 206° |
| 2026-05-04 15:48 | 35.97410 | -2.62642 | 34971 ft | 409 kts | 206° |
| 2026-05-04 15:48 | 35.89366 | -2.66041 | 34975 ft | 409 kts | 206° |
| 2026-05-04 15:49 | 35.83986 | -2.68310 | 34981 ft | 408 kts | 206° |
| 2026-05-04 15:49 | 35.81341 | -2.69409 | 34963 ft | 393 kts | 206° |
| 2026-05-04 15:49 | 35.78792 | -2.70446 | 34972 ft | 378 kts | 206° |
| 2026-05-04 15:50 | 35.76341 | -2.71440 | 34947 ft | 365 kts | 206° |
| 2026-05-04 15:50 | 35.73958 | -2.72416 | 34239 ft | 370 kts | 206° |
| 2026-05-04 15:50 | 35.71476 | -2.73445 | 33035 ft | 384 kts | 206° |
| 2026-05-04 15:50 | 35.68885 | -2.74520 | 31671 ft | 402 kts | 206° |
| 2026-05-04 15:51 | 35.66178 | -2.75634 | 30388 ft | 418 kts | 206° |
| 2026-05-04 15:51 | 35.63377 | -2.76777 | 29028 ft | 430 kts | 205° |
| 2026-05-04 15:51 | 35.60512 | -2.77941 | 27811 ft | 437 kts | 205° |
| 2026-05-04 15:51 | 35.57617 | -2.79118 | 26722 ft | 440 kts | 204° |
| 2026-05-04 15:52 | 35.54634 | -2.80052 | 25791 ft | 449 kts | 192° |
| 2026-05-04 15:52 | 35.51478 | -2.79980 | 25002 ft | 460 kts | 178° |
| 2026-05-04 15:52 | 35.48414 | -2.78954 | 24376 ft | 466 kts | 165° |
| 2026-05-04 15:52 | 35.45533 | -2.77087 | 23728 ft | 475 kts | 150° |
| 2026-05-04 15:53 | 35.43046 | -2.74386 | 22983 ft | 478 kts | 142° |
| 2026-05-04 15:53 | 35.40715 | -2.71511 | 22215 ft | 474 kts | 140° |
| 2026-05-04 15:53 | 35.38431 | -2.68630 | 21488 ft | 469 kts | 140° |
| 2026-05-04 15:53 | 35.36170 | -2.65789 | 20782 ft | 463 kts | 140° |
| 2026-05-04 15:54 | 35.33916 | -2.62993 | 20092 ft | 458 kts | 141° |
| 2026-05-04 15:54 | 35.31706 | -2.60286 | 19429 ft | 453 kts | 141° |
| 2026-05-04 15:54 | 35.29479 | -2.57582 | 18748 ft | 449 kts | 141° |
| 2026-05-04 15:54 | 35.27270 | -2.54911 | 18016 ft | 445 kts | 141° |
| 2026-05-04 15:55 | 35.25074 | -2.52261 | 17277 ft | 441 kts | 141° |
| 2026-05-04 15:55 | 35.22901 | -2.49638 | 16578 ft | 436 kts | 141° |
| 2026-05-04 15:55 | 35.20754 | -2.47046 | 15906 ft | 431 kts | 141° |
| 2026-05-04 15:55 | 35.18637 | -2.44491 | 15251 ft | 426 kts | 141° |
| 2026-05-04 15:56 | 35.16535 | -2.41957 | 14609 ft | 422 kts | 141° |
| 2026-05-04 15:56 | 35.14453 | -2.39463 | 13982 ft | 416 kts | 143° |
| 2026-05-04 15:56 | 35.12194 | -2.37545 | 13833 ft | 387 kts | 161° |
| 2026-05-04 15:56 | 35.09743 | -2.36520 | 13796 ft | 361 kts | 171° |
| 2026-05-04 15:57 | 35.07360 | -2.35768 | 13641 ft | 347 kts | 172° |
| 2026-05-04 15:57 | 35.05063 | -2.35070 | 13502 ft | 334 kts | 172° |
| 2026-05-04 15:57 | 35.02842 | -2.34392 | 13362 ft | 323 kts | 172° |
| 2026-05-04 15:57 | 35.00702 | -2.33730 | 13241 ft | 312 kts | 172° |
| 2026-05-04 15:58 | 34.98631 | -2.33081 | 13112 ft | 303 kts | 172° |
| 2026-05-04 15:58 | 34.96625 | -2.32447 | 12984 ft | 293 kts | 172° |
| 2026-05-04 15:58 | 34.94703 | -2.31838 | 12873 ft | 285 kts | 172° |
| 2026-05-04 15:58 | 34.92817 | -2.31239 | 12758 ft | 276 kts | 172° |
| 2026-05-04 15:59 | 34.90987 | -2.30657 | 12641 ft | 268 kts | 172° |
| 2026-05-04 15:59 | 34.89213 | -2.30092 | 12543 ft | 259 kts | 172° |
| 2026-05-04 15:59 | 34.87497 | -2.29545 | 12433 ft | 251 kts | 172° |
| 2026-05-04 15:59 | 34.85839 | -2.29018 | 12335 ft | 242 kts | 172° |
| 2026-05-04 16:00 | 34.84238 | -2.28506 | 12214 ft | 236 kts | 172° |
| 2026-05-04 16:00 | 34.82690 | -2.27858 | 12191 ft | 236 kts | 166° |
| 2026-05-04 16:00 | 34.81116 | -2.27077 | 11844 ft | 248 kts | 164° |
| 2026-05-04 16:00 | 34.79550 | -2.26278 | 11594 ft | 247 kts | 164° |
| 2026-05-04 16:01 | 34.77970 | -2.25474 | 11351 ft | 246 kts | 164° |
| 2026-05-04 16:01 | 34.76396 | -2.24680 | 11089 ft | 245 kts | 164° |
| 2026-05-04 16:01 | 34.74824 | -2.23891 | 10831 ft | 244 kts | 164° |
| 2026-05-04 16:01 | 34.73259 | -2.23110 | 10588 ft | 242 kts | 164° |
| 2026-05-04 16:02 | 34.71700 | -2.22338 | 10337 ft | 242 kts | 163° |
| 2026-05-04 16:02 | 34.70140 | -2.21566 | 10078 ft | 242 kts | 163° |
| 2026-05-04 16:02 | 34.67026 | -2.20027 | 9530 ft | 241 kts | 163° |
| 2026-05-04 16:03 | 34.65530 | -2.19153 | 9239 ft | 246 kts | 147° |
| 2026-05-04 16:03 | 34.64454 | -2.17536 | 9134 ft | 248 kts | 122° |
| 2026-05-04 16:03 | 34.63805 | -2.15571 | 8814 ft | 253 kts | 112° |
| 2026-05-04 16:03 | 34.63278 | -2.13540 | 8575 ft | 252 kts | 111° |
| 2026-05-04 16:04 | 34.62763 | -2.11501 | 8320 ft | 252 kts | 110° |
| 2026-05-04 16:04 | 34.61708 | -2.07433 | 7777 ft | 254 kts | 110° |
| 2026-05-04 16:04 | 34.61163 | -2.05384 | 7490 ft | 255 kts | 111° |
| 2026-05-04 16:05 | 34.60614 | -2.03343 | 7246 ft | 255 kts | 110° |
| 2026-05-04 16:05 | 34.60067 | -2.01318 | 6974 ft | 257 kts | 110° |
| 2026-05-04 16:05 | 34.59088 | -1.97135 | 6458 ft | 258 kts | 89° |
| 2026-05-04 16:06 | 34.59508 | -1.95085 | 6228 ft | 248 kts | 58° |
| 2026-05-04 16:06 | 34.62669 | -1.91288 | 5595 ft | 241 kts | 37° |
| 2026-05-04 16:07 | 34.64352 | -1.89581 | 5253 ft | 235 kts | 38° |
| 2026-05-04 16:07 | 34.67868 | -1.85917 | 4604 ft | 205 kts | 38° |
| 2026-05-04 16:08 | 34.68920 | -1.84813 | 4369 ft | 194 kts | 37° |
| 2026-05-04 16:08 | 34.72143 | -1.83208 | 3755 ft | 169 kts | 333° |
| 2026-05-04 16:09 | 34.73739 | -1.85105 | 3293 ft | 156 kts | 317° |
| 2026-05-04 16:09 | 34.75202 | -1.87032 | 2732 ft | 153 kts | 313° |
| 2026-05-04 16:10 | 34.76534 | -1.88996 | 2274 ft | 150 kts | 316° |
| 2026-05-04 16:11 | 34.78599 | -1.91890 | 1745 ft | 152 kts | 317° |
| 2026-05-04 16:11 | 34.79275 | -1.92823 | 1551 ft | 146 kts | 316° |
| 2026-05-04 16:12 | 34.80479 | -1.94509 | 1525 ft | 39 kts | 311° |
| 2026-05-04 16:12 | 34.80516 | -1.94850 | 1523 ft | 7 kts | 178° |
| 2026-05-04 16:13 | 34.80389 | -1.94716 | 1525 ft | 17 kts | 131° |
| 2026-05-04 16:13 | 34.80193 | -1.94441 | 1525 ft | 28 kts | 131° |
| 2026-05-04 16:14 | 34.79904 | -1.94036 | 1521 ft | 33 kts | 131° |
| 2026-05-04 16:14 | 34.79614 | -1.93630 | 1525 ft | 32 kts | 131° |
| 2026-05-04 16:15 | 34.79208 | -1.93253 | 1525 ft | 21 kts | 212° |
| 2026-05-04 16:16 | 34.78961 | -1.93452 | 1521 ft | 24 kts | 213° |
| 2026-05-04 16:16 | 34.78642 | -1.93716 | 1525 ft | 11 kts | 220° |
| 2026-05-04 16:17 | 34.78671 | -1.93838 | 1522 ft | 5 kts | 306° |
| 2026-05-04 16:18 | 34.78691 | -1.93871 | 1522 ft | 0 kts | 307° |